createdAt,value
2023-08-11T00:00:23.460Z,4.00
2023-08-11T00:02:53.533Z,4.23
2023-08-11T00:05:21.828Z,3.63
2023-08-11T00:07:51.546Z,3.80
2023-08-11T00:10:19.725Z,4.50
2023-08-11T00:12:49.670Z,3.70
2023-08-11T00:15:17.920Z,4.30
2023-08-11T00:17:46.216Z,4.10
2023-08-11T00:20:14.294Z,3.37
2023-08-11T00:22:42.402Z,4.10
2023-08-11T00:25:11.801Z,4.13
2023-08-11T00:27:39.967Z,4.07
2023-08-11T00:30:10.633Z,3.70
2023-08-11T00:32:39.170Z,3.73
2023-08-11T00:35:08.590Z,3.60
2023-08-11T00:37:36.797Z,3.67
2023-08-11T00:40:06.601Z,4.20
2023-08-11T00:42:34.738Z,4.13
2023-08-11T00:45:03.032Z,3.73
2023-08-11T00:47:33.757Z,4.30
2023-08-11T00:50:02.245Z,3.80
2023-08-11T00:52:30.598Z,4.20
2023-08-11T00:54:59.047Z,3.80
2023-08-11T00:57:27.363Z,4.17
2023-08-11T00:59:57.454Z,4.30
2023-08-11T01:02:25.723Z,4.10
2023-08-11T01:04:55.803Z,5.03
2023-08-11T01:07:26.418Z,4.23
2023-08-11T01:10:08.977Z,4.20
2023-08-11T01:12:43.152Z,4.23
2023-08-11T01:15:16.429Z,4.23
2023-08-11T01:17:45.175Z,4.20
2023-08-11T01:20:17.379Z,4.50
2023-08-11T01:22:46.945Z,4.53
2023-08-11T01:25:16.672Z,3.87
2023-08-11T01:27:47.156Z,4.97
2023-08-11T01:30:17.638Z,5.27
2023-08-11T01:32:46.602Z,5.13
2023-08-11T01:35:25.420Z,5.10
2023-08-11T01:38:03.079Z,5.07
2023-08-11T01:40:32.648Z,4.80
2023-08-11T01:43:03.971Z,4.60
2023-08-11T01:45:33.446Z,4.30
2023-08-11T01:48:01.876Z,4.40
2023-08-11T01:50:30.893Z,4.83
2023-08-11T01:52:59.456Z,4.30
2023-08-11T01:55:30.005Z,5.03
2023-08-11T01:58:00.554Z,4.33
2023-08-11T02:00:30.206Z,5.40
2023-08-11T02:02:59.790Z,4.57
2023-08-11T02:05:30.237Z,5.47
2023-08-11T02:07:59.610Z,4.73
2023-08-11T02:10:27.808Z,4.87
2023-08-11T02:12:55.912Z,5.00
2023-08-11T02:15:25.642Z,5.57
2023-08-11T02:17:53.818Z,5.37
2023-08-11T02:20:24.018Z,5.20
2023-08-11T02:22:53.515Z,5.67
2023-08-11T02:25:23.696Z,4.80
2023-08-11T02:27:52.971Z,4.60
2023-08-11T02:30:23.243Z,5.00
2023-08-11T02:32:53.085Z,5.23
2023-08-11T02:35:22.534Z,5.13
2023-08-11T02:37:50.822Z,5.47
2023-08-11T02:40:21.350Z,5.53
2023-08-11T02:42:55.383Z,5.63
2023-08-11T02:45:23.720Z,5.37
2023-08-11T02:47:53.609Z,5.03
2023-08-11T02:50:21.920Z,5.17
2023-08-11T02:52:50.504Z,5.30
2023-08-11T02:55:18.848Z,5.40
2023-08-11T02:57:47.125Z,5.60
2023-08-11T03:00:16.197Z,4.97
2023-08-11T03:02:47.421Z,5.57
2023-08-11T03:05:18.224Z,5.70
2023-08-11T03:07:50.143Z,5.60
2023-08-11T03:10:18.677Z,5.17
2023-08-11T03:12:47.019Z,5.07
2023-08-11T03:15:15.324Z,5.13
2023-08-11T03:17:44.076Z,5.20
2023-08-11T03:20:14.677Z,5.50
2023-08-11T03:22:45.680Z,5.30
2023-08-11T03:25:17.186Z,5.43
2023-08-11T03:27:45.338Z,5.27
2023-08-11T03:30:21.063Z,5.53
2023-08-11T03:32:54.511Z,5.80
2023-08-11T03:35:30.460Z,6.00
2023-08-11T03:38:00.064Z,5.87
2023-08-11T03:40:28.314Z,5.67
2023-08-11T03:42:56.483Z,5.87
2023-08-11T03:45:25.251Z,5.30
2023-08-11T03:47:53.410Z,5.47
2023-08-11T03:50:24.141Z,5.63
2023-08-11T03:52:53.012Z,5.17
2023-08-11T03:55:23.662Z,5.20
2023-08-11T03:57:52.768Z,4.97
2023-08-11T04:00:25.134Z,5.33
2023-08-11T04:03:06.363Z,4.97
2023-08-11T04:05:34.553Z,5.70
2023-08-11T04:08:02.743Z,5.33
2023-08-11T04:10:32.416Z,5.80
2023-08-11T04:13:00.585Z,5.33
2023-08-11T04:15:29.067Z,5.50
2023-08-11T04:17:57.308Z,5.77
2023-08-11T04:20:25.540Z,5.30
2023-08-11T04:22:53.581Z,5.67
2023-08-11T04:25:21.847Z,5.60
2023-08-11T04:27:52.519Z,5.53
2023-08-11T04:30:20.673Z,5.20
2023-08-11T04:32:51.911Z,5.33
2023-08-11T04:35:20.407Z,5.50
2023-08-11T04:37:49.999Z,5.77
2023-08-11T04:40:20.224Z,5.53
2023-08-11T04:42:52.103Z,5.67
2023-08-11T04:45:24.979Z,5.20
2023-08-11T04:47:53.239Z,5.60
2023-08-11T04:50:22.801Z,5.47
2023-08-11T04:52:55.585Z,5.23
2023-08-11T04:55:24.476Z,5.50
2023-08-11T04:57:54.114Z,5.53
2023-08-11T05:00:23.891Z,5.33
2023-08-11T05:02:53.516Z,5.10
2023-08-11T05:05:22.637Z,5.57
2023-08-11T05:07:50.788Z,5.50
2023-08-11T05:10:18.901Z,5.17
2023-08-11T05:12:47.618Z,5.53
2023-08-11T05:15:17.344Z,4.90
2023-08-11T05:17:46.459Z,5.43
2023-08-11T05:20:16.385Z,5.50
2023-08-11T05:22:45.287Z,5.30
2023-08-11T05:25:13.440Z,5.23
2023-08-11T05:27:41.726Z,5.07
2023-08-11T05:30:10.763Z,5.33
2023-08-11T05:32:40.753Z,5.03
2023-08-11T05:35:10.215Z,5.03
2023-08-11T05:37:39.606Z,4.47
2023-08-11T05:40:10.720Z,5.83
2023-08-11T05:42:39.633Z,4.33
2023-08-11T05:45:09.386Z,4.63
2023-08-11T05:47:37.525Z,4.23
2023-08-11T05:50:08.384Z,4.80
2023-08-11T05:52:36.578Z,5.03
2023-08-11T05:55:04.801Z,4.60
2023-08-11T05:57:32.902Z,4.53
2023-08-11T06:00:01.054Z,4.77
2023-08-11T06:02:29.306Z,4.47
2023-08-11T06:04:57.414Z,3.80
2023-08-11T06:07:26.823Z,4.70
2023-08-11T06:09:55.385Z,3.90
2023-08-11T06:12:23.432Z,4.00
2023-08-11T06:14:51.480Z,4.00
2023-08-11T06:17:19.583Z,3.43
2023-08-11T06:19:47.620Z,3.30
2023-08-11T06:22:15.807Z,3.50
2023-08-11T06:24:45.614Z,3.03
2023-08-11T06:27:13.766Z,3.50
2023-08-11T06:29:42.223Z,3.40
2023-08-11T06:32:10.761Z,3.40
2023-08-11T06:34:38.937Z,3.60
2023-08-11T06:37:07.531Z,3.07
2023-08-11T06:39:36.680Z,3.33
2023-08-11T06:42:06.327Z,3.07
2023-08-11T06:44:51.028Z,2.80
2023-08-11T06:47:19.278Z,2.67
2023-08-11T06:49:47.367Z,2.93
2023-08-11T06:52:15.501Z,3.10
2023-08-11T06:54:43.769Z,2.70
2023-08-11T06:57:14.475Z,3.27
2023-08-11T06:59:43.268Z,3.30
2023-08-11T07:02:11.396Z,2.90
2023-08-11T07:04:40.727Z,3.10
2023-08-11T07:07:09.368Z,3.13
2023-08-11T07:09:38.509Z,2.80
2023-08-11T07:12:07.165Z,2.80
2023-08-11T07:14:36.814Z,2.90
2023-08-11T07:17:05.205Z,3.00
2023-08-11T07:19:33.650Z,3.03
2023-08-11T07:22:01.890Z,2.70
2023-08-11T07:24:45.513Z,3.10
2023-08-11T07:27:15.806Z,2.77
2023-08-11T07:29:52.480Z,3.17
2023-08-11T07:32:22.956Z,3.20
2023-08-11T07:34:51.934Z,2.67
2023-08-11T07:37:20.999Z,2.93
2023-08-11T07:39:59.153Z,2.97
2023-08-11T07:42:28.178Z,2.73
2023-08-11T07:45:02.735Z,2.67
2023-08-11T07:47:31.494Z,2.63
2023-08-11T07:50:04.904Z,2.73
2023-08-11T07:52:49.628Z,2.50
2023-08-11T07:55:35.473Z,2.80
2023-08-11T07:58:16.719Z,2.73
2023-08-11T08:00:55.198Z,2.80
2023-08-11T08:03:26.373Z,2.60
2023-08-11T08:05:56.094Z,2.60
2023-08-11T08:08:24.599Z,2.47
2023-08-11T08:10:52.731Z,2.60
2023-08-11T08:13:20.966Z,2.73
2023-08-11T08:15:51.619Z,2.40
2023-08-11T08:18:21.464Z,2.20
2023-08-11T08:20:50.035Z,2.60
2023-08-11T08:23:18.520Z,2.27
2023-08-11T08:25:47.613Z,2.40
2023-08-11T08:28:17.048Z,2.50
2023-08-11T08:30:45.722Z,2.30
2023-08-11T08:33:15.666Z,2.40
2023-08-11T08:35:44.085Z,2.40
2023-08-11T08:38:12.688Z,2.13
2023-08-11T08:40:41.093Z,2.37
2023-08-11T08:43:10.071Z,2.40
2023-08-11T08:45:39.387Z,2.33
2023-08-11T08:48:11.780Z,2.43
2023-08-11T08:50:41.497Z,2.20
2023-08-11T08:53:10.776Z,2.23
2023-08-11T08:55:39.197Z,2.63
2023-08-11T08:58:10.391Z,2.33
2023-08-11T09:00:39.152Z,2.37
2023-08-11T09:03:12.228Z,2.33
2023-08-11T09:05:43.060Z,2.10
2023-08-11T09:08:11.644Z,1.93
2023-08-11T09:10:40.124Z,2.40
2023-08-11T09:13:08.737Z,1.80
2023-08-11T09:15:37.352Z,2.20
2023-08-11T09:18:06.507Z,2.20
2023-08-11T09:20:37.785Z,2.20
2023-08-11T09:23:08.922Z,1.87
2023-08-11T09:25:37.446Z,2.20
2023-08-11T09:28:06.395Z,2.50
2023-08-11T09:30:34.763Z,2.20
2023-08-11T09:33:04.829Z,2.30
2023-08-11T09:35:33.339Z,2.13
2023-08-11T09:38:02.275Z,2.33
2023-08-11T09:40:33.848Z,2.30
2023-08-11T09:43:02.180Z,2.23
2023-08-11T09:45:32.681Z,2.20
2023-08-11T09:48:00.817Z,2.50
2023-08-11T09:50:29.582Z,2.10
2023-08-11T09:53:00.003Z,2.33
2023-08-11T09:55:29.367Z,2.27
2023-08-11T09:58:00.386Z,2.00
2023-08-11T10:00:29.008Z,2.43
2023-08-11T10:03:01.930Z,2.20
2023-08-11T10:05:31.134Z,2.13
2023-08-11T10:08:00.797Z,2.10
2023-08-11T10:10:29.664Z,2.20
2023-08-11T10:13:03.492Z,2.40
2023-08-11T10:15:32.950Z,2.20
2023-08-11T10:18:01.675Z,2.20
2023-08-11T10:20:30.938Z,2.10
2023-08-11T10:22:59.491Z,2.23
2023-08-11T10:25:28.140Z,2.13
2023-08-11T10:27:56.904Z,2.30
2023-08-11T10:30:27.213Z,2.30
2023-08-11T10:33:06.709Z,2.10
2023-08-11T10:35:37.497Z,2.27
2023-08-11T10:38:07.048Z,2.30
2023-08-11T10:40:40.340Z,2.27
2023-08-11T10:43:08.858Z,2.50
2023-08-11T10:45:40.715Z,2.40
2023-08-11T10:48:10.403Z,2.10
2023-08-11T10:50:39.575Z,2.10
2023-08-11T10:53:08.832Z,2.63
2023-08-11T10:55:37.273Z,2.63
2023-08-11T10:58:12.682Z,2.30
2023-08-11T11:00:42.454Z,2.97
2023-08-11T11:03:12.537Z,2.13
2023-08-11T11:05:43.261Z,2.13
2023-08-11T11:08:11.592Z,2.30
2023-08-11T11:10:49.285Z,2.00
2023-08-11T11:13:20.715Z,2.10
2023-08-11T11:15:50.779Z,2.17
2023-08-11T11:18:19.421Z,2.63
2023-08-11T11:20:48.203Z,2.70
2023-08-11T11:23:16.662Z,2.70
2023-08-11T11:25:44.991Z,2.50
2023-08-11T11:28:13.764Z,2.10
2023-08-11T11:30:42.013Z,2.10
2023-08-11T11:33:12.508Z,2.00
2023-08-11T11:35:40.780Z,2.40
2023-08-11T11:38:09.027Z,2.40
2023-08-11T11:40:37.726Z,2.03
2023-08-11T11:43:06.049Z,2.17
2023-08-11T11:45:34.328Z,2.20
2023-08-11T11:48:02.457Z,2.53
2023-08-11T11:50:31.964Z,2.17
2023-08-11T11:53:00.330Z,2.23
2023-08-11T11:55:28.827Z,2.30
2023-08-11T11:57:58.627Z,2.07
2023-08-11T12:00:26.768Z,2.43
2023-08-11T12:02:55.476Z,2.00
2023-08-11T12:05:23.659Z,2.60
2023-08-11T12:07:53.117Z,2.23
2023-08-11T12:10:22.367Z,2.57
2023-08-11T12:13:00.286Z,2.30
2023-08-11T12:15:28.635Z,2.43
2023-08-11T12:17:56.816Z,2.23
2023-08-11T12:20:25.248Z,2.07
2023-08-11T12:22:54.867Z,1.90
2023-08-11T12:25:24.231Z,1.90
2023-08-11T12:27:55.080Z,2.07
2023-08-11T12:30:23.353Z,2.10
2023-08-11T12:32:51.420Z,1.70
2023-08-11T12:35:19.606Z,1.93
2023-08-11T12:37:48.000Z,2.17
2023-08-11T12:40:19.766Z,2.50
2023-08-11T12:42:47.972Z,1.97
2023-08-11T12:45:16.162Z,1.87
2023-08-11T12:47:44.337Z,1.90
2023-08-11T12:50:12.596Z,1.90
2023-08-11T12:52:41.033Z,1.63
2023-08-11T12:55:10.561Z,1.57
2023-08-11T12:57:40.128Z,1.83
2023-08-11T13:00:11.682Z,1.70
2023-08-11T13:02:39.882Z,1.87
2023-08-11T13:05:08.488Z,1.70
2023-08-11T13:07:38.357Z,1.80
2023-08-11T13:10:06.933Z,1.80
2023-08-11T13:12:34.952Z,2.03
2023-08-11T13:15:04.751Z,1.87
2023-08-11T13:17:32.964Z,1.67
2023-08-11T13:20:04.806Z,1.77
2023-08-11T13:22:32.869Z,1.80
2023-08-11T13:25:07.915Z,1.73
2023-08-11T13:27:36.077Z,1.73
2023-08-11T13:30:08.338Z,1.50
2023-08-11T13:32:36.601Z,1.60
2023-08-11T13:35:06.301Z,1.53
2023-08-11T13:37:35.064Z,1.97
2023-08-11T13:40:03.236Z,1.80
2023-08-11T13:42:31.687Z,1.80
2023-08-11T13:44:59.815Z,2.20
2023-08-11T13:47:29.334Z,1.90
2023-08-11T13:49:57.432Z,1.90
2023-08-11T13:52:25.535Z,2.00
2023-08-11T13:54:59.984Z,1.80
2023-08-11T13:57:28.095Z,1.80
2023-08-11T13:59:57.396Z,2.00
2023-08-11T14:02:26.622Z,1.70
2023-08-11T14:04:56.681Z,1.90
2023-08-11T14:07:31.643Z,1.83
2023-08-11T14:10:01.982Z,2.47
2023-08-11T14:12:30.058Z,2.00
2023-08-11T14:14:58.184Z,2.00
2023-08-11T14:17:26.390Z,1.97
2023-08-11T14:19:55.909Z,1.73
2023-08-11T14:22:24.181Z,2.40
2023-08-11T14:24:54.046Z,1.80
2023-08-11T14:27:24.036Z,2.00
2023-08-11T14:29:52.242Z,1.97
2023-08-11T14:32:25.614Z,1.97
2023-08-11T14:34:56.087Z,1.87
2023-08-11T14:37:24.355Z,2.37
2023-08-11T14:39:52.516Z,2.53
2023-08-11T14:42:20.665Z,2.20
2023-08-11T14:44:48.728Z,2.00
2023-08-11T14:47:17.041Z,2.90
2023-08-11T14:49:45.839Z,3.37
2023-08-11T14:52:15.542Z,5.43
2023-08-11T14:54:44.046Z,1.90
2023-08-11T14:57:14.414Z,2.33
2023-08-11T14:59:42.654Z,1.87
2023-08-11T15:02:11.098Z,2.20
2023-08-11T15:04:39.645Z,2.10
2023-08-11T15:07:07.745Z,2.23
2023-08-11T15:09:38.435Z,1.93
2023-08-11T15:12:08.392Z,2.10
2023-08-11T15:14:36.879Z,2.30
2023-08-11T15:17:05.055Z,2.00
2023-08-11T15:19:33.276Z,2.00
2023-08-11T15:22:01.433Z,2.20
2023-08-11T15:24:29.529Z,2.13
2023-08-11T15:26:59.130Z,2.20
2023-08-11T15:29:27.373Z,2.17
2023-08-11T15:31:55.518Z,2.40
2023-08-11T15:34:23.598Z,2.00
2023-08-11T15:36:51.639Z,2.03
2023-08-11T15:39:19.747Z,2.00
2023-08-11T15:41:47.877Z,1.80
2023-08-11T15:44:18.651Z,2.03
2023-08-11T15:46:48.449Z,2.03
2023-08-11T15:49:16.622Z,2.03
2023-08-11T15:51:44.721Z,2.10
2023-08-11T15:54:12.954Z,2.53
2023-08-11T15:56:41.103Z,2.23
2023-08-11T15:59:09.495Z,2.30
2023-08-11T16:01:40.011Z,2.20
2023-08-11T16:04:08.388Z,1.97
2023-08-11T16:06:36.641Z,2.30
2023-08-11T16:09:05.677Z,2.50
2023-08-11T16:11:35.039Z,2.20
2023-08-11T16:14:03.219Z,2.80
2023-08-11T16:16:31.398Z,2.17
2023-08-11T16:19:01.030Z,2.33
2023-08-11T16:21:29.206Z,2.20
2023-08-11T16:23:57.274Z,2.23
2023-08-11T16:26:25.636Z,2.57
2023-08-11T16:28:53.778Z,2.20
2023-08-11T16:31:22.012Z,2.50
2023-08-11T16:33:50.563Z,2.00
2023-08-11T16:36:21.330Z,2.20
2023-08-11T16:38:49.601Z,2.33
2023-08-11T16:41:18.396Z,2.20
2023-08-11T16:43:46.615Z,2.40
2023-08-11T16:46:16.979Z,2.77
2023-08-11T16:48:45.657Z,2.60
2023-08-11T16:51:15.336Z,2.10
2023-08-11T16:53:45.568Z,1.97
2023-08-11T16:56:15.956Z,2.07
2023-08-11T16:58:44.418Z,2.30
2023-08-11T17:01:13.171Z,2.23
2023-08-11T17:04:16.566Z,2.40
2023-08-11T17:16:08.959Z,2.27
2023-08-11T17:18:51.161Z,2.27
2023-08-11T17:21:35.135Z,2.17
2023-08-11T17:24:03.848Z,2.77
2023-08-11T17:26:35.689Z,2.47
2023-08-11T17:29:05.730Z,2.33
2023-08-11T17:31:41.493Z,2.10
2023-08-11T17:34:12.445Z,2.10
2023-08-11T17:36:40.737Z,2.37
2023-08-11T17:39:09.079Z,2.00
2023-08-11T17:41:42.619Z,2.60
2023-08-11T17:44:29.572Z,2.50
2023-08-11T17:47:00.204Z,2.70
2023-08-11T17:49:29.493Z,2.40
2023-08-11T17:51:59.149Z,2.37
2023-08-11T17:54:32.601Z,2.40
2023-08-11T17:57:01.681Z,2.63
2023-08-11T17:59:31.256Z,2.80
2023-08-11T18:02:04.019Z,2.80
2023-08-11T18:04:42.475Z,2.50
2023-08-11T18:07:13.697Z,2.60
2023-08-11T18:09:50.482Z,2.67
2023-08-11T18:13:32.332Z,2.53
2023-08-11T18:21:14.915Z,2.70
2023-08-11T18:24:44.410Z,2.63
2023-08-11T18:27:33.167Z,3.03
2023-08-11T18:45:31.022Z,2.90
2023-08-11T18:58:21.863Z,3.00
2023-08-11T19:00:50.466Z,2.57
2023-08-11T19:03:19.380Z,3.00
2023-08-11T19:05:51.047Z,2.87
2023-08-11T19:08:27.860Z,3.17
2023-08-11T19:11:01.985Z,3.27
2023-08-11T19:13:35.496Z,2.70
2023-08-11T19:16:04.290Z,3.00
2023-08-11T19:18:33.249Z,3.03
2023-08-11T19:21:02.153Z,2.97
2023-08-11T19:23:30.662Z,2.90
2023-08-11T19:26:05.141Z,3.40
2023-08-11T19:28:35.364Z,3.40
2023-08-11T19:31:04.211Z,2.87
2023-08-11T19:33:33.150Z,3.03
2023-08-11T19:36:01.783Z,3.00
2023-08-11T19:38:30.751Z,2.90
2023-08-11T19:40:59.486Z,3.03
2023-08-11T19:43:27.957Z,2.90
2023-08-11T19:45:57.712Z,2.90
2023-08-11T19:48:26.125Z,3.13
2023-08-11T19:50:54.600Z,3.17
2023-08-11T19:53:22.962Z,2.90
2023-08-11T19:55:51.367Z,2.80
2023-08-11T19:58:19.739Z,3.40
2023-08-11T20:00:48.053Z,3.23
2023-08-11T20:03:17.780Z,3.20
2023-08-11T20:05:46.326Z,3.10
2023-08-11T20:08:15.398Z,2.80
2023-08-11T20:10:45.723Z,3.40
2023-08-11T20:13:14.239Z,3.20
2023-08-11T20:15:43.048Z,3.60
2023-08-11T20:18:11.687Z,3.80
2023-08-11T20:20:42.447Z,3.00
2023-08-11T20:23:12.518Z,3.00
2023-08-11T20:25:40.859Z,3.40
2023-08-11T20:28:09.107Z,2.73
2023-08-11T20:30:37.962Z,2.90
2023-08-11T20:33:06.355Z,3.13
2023-08-11T20:35:34.959Z,2.70
2023-08-11T20:38:04.906Z,3.07
2023-08-11T20:40:34.809Z,3.23
2023-08-11T20:43:05.044Z,3.13
2023-08-11T20:45:34.293Z,3.00
2023-08-11T20:48:06.520Z,3.00
2023-08-11T20:50:37.462Z,3.13
2023-08-11T20:53:07.943Z,3.20
2023-08-11T20:55:36.545Z,2.93
2023-08-11T20:58:05.315Z,3.30
2023-08-11T21:00:33.534Z,3.30
2023-08-11T21:03:02.291Z,3.13
2023-08-11T21:05:30.538Z,3.43
2023-08-11T21:07:59.294Z,3.00
2023-08-11T21:10:29.269Z,3.17
2023-08-11T21:12:57.486Z,3.40
2023-08-11T21:15:25.986Z,2.77
2023-08-11T21:17:54.255Z,3.00
2023-08-11T21:20:22.659Z,3.47
2023-08-11T21:22:50.983Z,2.80
2023-08-11T21:25:19.821Z,3.30
2023-08-11T21:27:49.691Z,3.20
2023-08-11T21:30:18.097Z,3.70
2023-08-11T21:32:46.351Z,3.90
2023-08-11T21:35:14.953Z,3.70
2023-08-11T21:37:43.529Z,3.70
2023-08-11T21:40:11.966Z,3.67
2023-08-11T21:42:40.150Z,4.07
2023-08-11T21:45:11.152Z,4.33
2023-08-11T21:47:39.334Z,4.27
2023-08-11T21:50:08.909Z,4.63
2023-08-11T21:52:37.065Z,4.70
2023-08-11T21:55:05.591Z,4.53
2023-08-11T21:57:33.895Z,5.40
2023-08-11T22:00:02.513Z,5.83
2023-08-11T22:02:37.802Z,5.60
2023-08-11T22:05:06.616Z,5.97
2023-08-11T22:07:34.782Z,7.07
2023-08-11T22:10:03.395Z,6.60
2023-08-11T22:12:31.624Z,6.87
2023-08-11T22:14:59.962Z,7.17
2023-08-11T22:17:28.034Z,8.10
2023-08-11T22:19:57.610Z,7.60
2023-08-11T22:22:25.990Z,8.17
2023-08-11T22:24:54.153Z,8.73
2023-08-11T22:27:22.546Z,8.70
2023-08-11T22:29:52.878Z,10.03
2023-08-11T22:32:21.191Z,9.27
2023-08-11T22:34:53.071Z,10.30
2023-08-11T22:37:23.666Z,9.27
2023-08-11T22:39:52.013Z,10.53
2023-08-11T22:42:21.625Z,9.07
2023-08-11T22:44:51.074Z,9.23
2023-08-11T22:47:19.324Z,9.57
2023-08-11T22:49:47.456Z,10.17
2023-08-11T22:52:16.756Z,10.07
2023-08-11T22:54:46.262Z,10.23
2023-08-11T22:57:14.455Z,10.77
2023-08-11T22:59:42.607Z,10.50
2023-08-11T23:02:10.764Z,10.73
2023-08-11T23:04:38.968Z,11.13
2023-08-11T23:07:07.130Z,11.20
2023-08-11T23:09:35.189Z,11.83
2023-08-11T23:12:05.569Z,13.03
2023-08-11T23:14:33.756Z,14.20
2023-08-11T23:17:01.822Z,15.13
2023-08-11T23:19:29.959Z,13.97
2023-08-11T23:21:58.017Z,13.07
2023-08-11T23:24:26.100Z,13.67
2023-08-11T23:26:54.216Z,15.13
2023-08-11T23:29:23.781Z,15.73
2023-08-11T23:31:51.916Z,16.20
2023-08-11T23:34:20.068Z,17.70
2023-08-11T23:36:48.197Z,18.40
2023-08-11T23:39:16.837Z,17.27
2023-08-11T23:41:44.955Z,19.20
2023-08-11T23:44:13.104Z,17.77
2023-08-11T23:46:42.587Z,17.67
2023-08-11T23:49:10.666Z,18.47
2023-08-11T23:51:39.427Z,18.73
2023-08-11T23:54:07.611Z,19.53
2023-08-11T23:56:35.695Z,20.87
2023-08-11T23:59:03.893Z,20.57
